sensor_id;sensor_type;location;lat;lon;timestamp;temperature;humidity
40816;DHT22;26535;48.788;9.214;2023-03-03T00:01:27;3.10;99.90
40816;DHT22;26535;48.788;9.214;2023-03-03T00:03:53;3.00;99.90
40816;DHT22;26535;48.788;9.214;2023-03-03T00:06:19;3.00;99.90
40816;DHT22;26535;48.788;9.214;2023-03-03T00:08:45;2.90;99.90
40816;DHT22;26535;48.788;9.214;2023-03-03T00:11:11;2.80;99.90
40816;DHT22;26535;48.788;9.214;2023-03-03T00:13:43;2.70;99.90
40816;DHT22;26535;48.788;9.214;2023-03-03T00:18:50;2.50;99.90
40816;DHT22;26535;48.788;9.214;2023-03-03T00:21:25;2.50;99.90
40816;DHT22;26535;48.788;9.214;2023-03-03T00:23:54;2.40;99.90
40816;DHT22;26535;48.788;9.214;2023-03-03T00:26:36;2.40;99.90
40816;DHT22;26535;48.788;9.214;2023-03-03T00:29:23;2.30;99.90
40816;DHT22;26535;48.788;9.214;2023-03-03T06:01:34;3.70;99.90
40816;DHT22;26535;48.788;9.214;2023-03-03T06:04:00;3.60;99.90
40816;DHT22;26535;48.788;9.214;2023-03-03T06:06:25;3.60;99.90
40816;DHT22;26535;48.788;9.214;2023-03-03T06:08:52;3.50;99.90
40816;DHT22;26535;48.788;9.214;2023-03-03T06:11:18;3.40;99.90
40816;DHT22;26535;48.788;9.214;2023-03-03T06:13:44;3.40;99.90
40816;DHT22;26535;48.788;9.214;2023-03-03T06:16:10;3.40;99.90
40816;DHT22;26535;48.788;9.214;2023-03-03T06:18:36;3.40;99.90
40816;DHT22;26535;48.788;9.214;2023-03-03T06:21:02;3.30;99.90
40816;DHT22;26535;48.788;9.214;2023-03-03T06:23:27;3.20;99.90
40816;DHT22;26535;48.788;9.214;2023-03-03T06:25:53;3.20;99.90
40816;DHT22;26535;48.788;9.214;2023-03-03T06:28:19;3.20;99.90
40816;DHT22;26535;48.788;9.214;2023-03-03T06:30:45;3.20;99.90
40816;DHT22;26535;48.788;9.214;2023-03-03T06:33:10;3.20;99.90
40816;DHT22;26535;48.788;9.214;2023-03-03T06:35:36;3.20;99.90
40816;DHT22;26535;48.788;9.214;2023-03-03T06:38:02;3.20;99.90
40816;DHT22;26535;48.788;9.214;2023-03-03T06:40:28;3.20;99.90
40816;DHT22;26535;48.788;9.214;2023-03-03T06:42:53;3.20;99.90
40816;DHT22;26535;48.788;9.214;2023-03-03T06:45:19;3.20;99.90
40816;DHT22;26535;48.788;9.214;2023-03-03T06:47:45;3.30;99.90
40816;DHT22;26535;48.788;9.214;2023-03-03T06:50:11;3.30;99.90
40816;DHT22;26535;48.788;9.214;2023-03-03T06:52:37;3.40;99.90
40816;DHT22;26535;48.788;9.214;2023-03-03T06:55:15;3.40;99.90
40816;DHT22;26535;48.788;9.214;2023-03-03T06:57:42;3.50;99.90
40816;DHT22;26535;48.788;9.214;2023-03-03T07:00:23;3.50;99.90
40816;DHT22;26535;48.788;9.214;2023-03-03T07:02:58;3.60;99.90
40816;DHT22;26535;48.788;9.214;2023-03-03T07:05:25;3.70;99.90
40816;DHT22;26535;48.788;9.214;2023-03-03T07:07:54;3.70;99.90
40816;DHT22;26535;48.788;9.214;2023-03-03T07:10:26;3.80;99.90
40816;DHT22;26535;48.788;9.214;2023-03-03T07:12:52;3.80;99.90
40816;DHT22;26535;48.788;9.214;2023-03-03T07:15:24;3.90;99.90
40816;DHT22;26535;48.788;9.214;2023-03-03T07:17:55;4.00;99.90
40816;DHT22;26535;48.788;9.214;2023-03-03T07:20:32;4.00;99.90
40816;DHT22;26535;48.788;9.214;2023-03-03T07:23:00;4.00;99.90
40816;DHT22;26535;48.788;9.214;2023-03-03T07:25:33;4.10;99.90
40816;DHT22;26535;48.788;9.214;2023-03-03T07:28:22;4.20;99.90
40816;DHT22;26535;48.788;9.214;2023-03-03T07:30:48;4.30;99.90
40816;DHT22;26535;48.788;9.214;2023-03-03T07:33:26;4.30;99.90
40816;DHT22;26535;48.788;9.214;2023-03-03T07:35:59;4.40;99.90
40816;DHT22;26535;48.788;9.214;2023-03-03T07:38:46;4.50;99.60
40816;DHT22;26535;48.788;9.214;2023-03-03T07:41:17;4.50;99.20
40816;DHT22;26535;48.788;9.214;2023-03-03T07:43:55;4.70;98.80
40816;DHT22;26535;48.788;9.214;2023-03-03T07:46:43;4.80;98.10
40816;DHT22;26535;48.788;9.214;2023-03-03T07:49:28;4.80;98.40
40816;DHT22;26535;48.788;9.214;2023-03-03T07:51:58;4.90;98.30
40816;DHT22;26535;48.788;9.214;2023-03-03T07:57:20;5.10;97.90
40816;DHT22;26535;48.788;9.214;2023-03-03T07:59:49;5.30;97.80
40816;DHT22;26535;48.788;9.214;2023-03-03T08:04:52;5.60;96.80
40816;DHT22;26535;48.788;9.214;2023-03-03T08:07:21;5.60;96.70
40816;DHT22;26535;48.788;9.214;2023-03-03T08:09:50;5.60;96.70
40816;DHT22;26535;48.788;9.214;2023-03-03T08:12:30;5.60;96.40
40816;DHT22;26535;48.788;9.214;2023-03-03T08:17:42;6.00;95.80
40816;DHT22;26535;48.788;9.214;2023-03-03T08:23:10;6.40;94.40
40816;DHT22;26535;48.788;9.214;2023-03-03T08:25:37;6.50;93.80
40816;DHT22;26535;48.788;9.214;2023-03-03T08:28:03;6.50;93.60
40816;DHT22;26535;48.788;9.214;2023-03-03T08:30:29;6.50;93.90
40816;DHT22;26535;48.788;9.214;2023-03-03T08:32:56;6.50;93.60
40816;DHT22;26535;48.788;9.214;2023-03-03T08:35:22;6.30;93.40
40816;DHT22;26535;48.788;9.214;2023-03-03T08:37:48;6.10;93.70
40816;DHT22;26535;48.788;9.214;2023-03-03T08:40:14;6.00;93.80
40816;DHT22;26535;48.788;9.214;2023-03-03T08:42:39;6.00;94.20
40816;DHT22;26535;48.788;9.214;2023-03-03T08:45:05;6.10;94.30
40816;DHT22;26535;48.788;9.214;2023-03-03T08:47:31;6.00;94.10
40816;DHT22;26535;48.788;9.214;2023-03-03T08:49:58;6.20;94.40
40816;DHT22;26535;48.788;9.214;2023-03-03T08:52:23;6.10;94.20
40816;DHT22;26535;48.788;9.214;2023-03-03T08:54:49;6.10;94.10
40816;DHT22;26535;48.788;9.214;2023-03-03T08:57:15;6.20;94.10
40816;DHT22;26535;48.788;9.214;2023-03-03T08:59:41;6.30;94.20
40816;DHT22;26535;48.788;9.214;2023-03-03T09:02:07;6.30;94.10
40816;DHT22;26535;48.788;9.214;2023-03-03T09:04:33;6.30;94.00
40816;DHT22;26535;48.788;9.214;2023-03-03T09:06:58;6.40;93.80
40816;DHT22;26535;48.788;9.214;2023-03-03T09:09:24;6.50;94.00
40816;DHT22;26535;48.788;9.214;2023-03-03T09:11:53;6.40;94.00
40816;DHT22;26535;48.788;9.214;2023-03-03T09:14:27;6.40;94.00
40816;DHT22;26535;48.788;9.214;2023-03-03T09:16:54;6.30;93.80
40816;DHT22;26535;48.788;9.214;2023-03-03T09:19:25;6.40;94.00
40816;DHT22;26535;48.788;9.214;2023-03-03T09:21:53;6.40;93.50
40816;DHT22;26535;48.788;9.214;2023-03-03T09:24:30;6.40;93.90
40816;DHT22;26535;48.788;9.214;2023-03-03T09:26:57;6.60;93.70
40816;DHT22;26535;48.788;9.214;2023-03-03T09:29:49;7.10;93.10
40816;DHT22;26535;48.788;9.214;2023-03-03T09:34:50;7.80;91.60
40816;DHT22;26535;48.788;9.214;2023-03-03T09:37:20;7.80;91.00
40816;DHT22;26535;48.788;9.214;2023-03-03T09:39:52;7.80;90.70
40816;DHT22;26535;48.788;9.214;2023-03-03T09:42:54;8.00;90.70
40816;DHT22;26535;48.788;9.214;2023-03-03T09:45:25;8.20;90.60
40816;DHT22;26535;48.788;9.214;2023-03-03T09:51:01;8.40;89.70
40816;DHT22;26535;48.788;9.214;2023-03-03T10:01:42;8.80;89.30
40816;DHT22;26535;48.788;9.214;2023-03-03T10:07:10;9.20;88.00
40816;DHT22;26535;48.788;9.214;2023-03-03T10:12:40;9.60;87.20
40816;DHT22;26535;48.788;9.214;2023-03-03T10:21:03;10.10;84.60
40816;DHT22;26535;48.788;9.214;2023-03-03T10:29:30;10.20;83.60
40816;DHT22;26535;48.788;9.214;2023-03-03T10:40:24;10.20;85.00
40816;DHT22;26535;48.788;9.214;2023-03-03T10:45:48;10.70;82.50
40816;DHT22;26535;48.788;9.214;2023-03-03T10:54:49;11.00;80.10
40816;DHT22;26535;48.788;9.214;2023-03-03T10:57:29;11.10;81.60
40816;DHT22;26535;48.788;9.214;2023-03-03T11:00:15;11.20;79.90
40816;DHT22;26535;48.788;9.214;2023-03-03T11:03:03;11.20;79.50
40816;DHT22;26535;48.788;9.214;2023-03-03T11:08:33;11.10;80.70
40816;DHT22;26535;48.788;9.214;2023-03-03T11:24:39;12.50;77.60
40816;DHT22;26535;48.788;9.214;2023-03-03T11:33:00;12.40;76.90
40816;DHT22;26535;48.788;9.214;2023-03-03T11:38:44;12.10;77.00
40816;DHT22;26535;48.788;9.214;2023-03-03T11:44:08;11.50;77.30
40816;DHT22;26535;48.788;9.214;2023-03-03T11:46:52;11.50;76.80
40816;DHT22;26535;48.788;9.214;2023-03-03T11:57:45;12.00;75.90
40816;DHT22;26535;48.788;9.214;2023-03-03T12:00:44;12.10;76.00
40816;DHT22;26535;48.788;9.214;2023-03-03T12:28:24;19.80;58.40
40816;DHT22;26535;48.788;9.214;2023-03-03T12:31:19;19.70;57.50
40816;DHT22;26535;48.788;9.214;2023-03-03T12:44:21;20.60;55.50
40816;DHT22;26535;48.788;9.214;2023-03-03T12:47:05;20.70;54.40
40816;DHT22;26535;48.788;9.214;2023-03-03T12:49:59;21.10;54.00
40816;DHT22;26535;48.788;9.214;2023-03-03T12:58:21;21.00;53.50
40816;DHT22;26535;48.788;9.214;2023-03-03T13:03:43;22.40;52.60
40816;DHT22;26535;48.788;9.214;2023-03-03T13:06:22;23.20;51.50
40816;DHT22;26535;48.788;9.214;2023-03-03T13:09:30;23.60;50.20
40816;DHT22;26535;48.788;9.214;2023-03-03T13:12:31;23.70;50.70
40816;DHT22;26535;48.788;9.214;2023-03-03T13:15:12;23.50;50.40
40816;DHT22;26535;48.788;9.214;2023-03-03T13:23:14;23.90;51.10
40816;DHT22;26535;48.788;9.214;2023-03-03T13:25:50;24.60;48.30
40816;DHT22;26535;48.788;9.214;2023-03-03T13:28:34;24.30;48.50
40816;DHT22;26535;48.788;9.214;2023-03-03T13:31:22;23.70;49.10
40816;DHT22;26535;48.788;9.214;2023-03-03T13:33:59;24.00;49.30
40816;DHT22;26535;48.788;9.214;2023-03-03T13:36:41;24.20;48.60
40816;DHT22;26535;48.788;9.214;2023-03-03T13:39:18;24.50;48.60
40816;DHT22;26535;48.788;9.214;2023-03-03T13:42:07;24.40;47.70
40816;DHT22;26535;48.788;9.214;2023-03-03T13:44:45;24.40;49.00
40816;DHT22;26535;48.788;9.214;2023-03-03T13:47:20;24.50;47.60
40816;DHT22;26535;48.788;9.214;2023-03-03T13:52:43;25.00;47.10
40816;DHT22;26535;48.788;9.214;2023-03-03T13:55:56;24.80;46.80
40816;DHT22;26535;48.788;9.214;2023-03-03T14:00:53;24.70;47.20
40816;DHT22;26535;48.788;9.214;2023-03-03T14:06:16;25.40;46.00
40816;DHT22;26535;48.788;9.214;2023-03-03T14:08:52;25.20;46.40
40816;DHT22;26535;48.788;9.214;2023-03-03T14:11:22;24.50;46.70
40816;DHT22;26535;48.788;9.214;2023-03-03T14:14:12;24.50;47.50
40816;DHT22;26535;48.788;9.214;2023-03-03T14:16:42;25.40;46.90
40816;DHT22;26535;48.788;9.214;2023-03-03T14:22:21;26.20;45.50
40816;DHT22;26535;48.788;9.214;2023-03-03T14:25:03;25.90;45.20
40816;DHT22;26535;48.788;9.214;2023-03-03T14:28:09;25.50;45.60
40816;DHT22;26535;48.788;9.214;2023-03-03T14:30:42;25.60;46.20
40816;DHT22;26535;48.788;9.214;2023-03-03T14:35:37;26.00;45.30
40816;DHT22;26535;48.788;9.214;2023-03-03T14:38:14;26.00;45.70
40816;DHT22;26535;48.788;9.214;2023-03-03T14:40:43;25.90;45.50
40816;DHT22;26535;48.788;9.214;2023-03-03T14:43:33;26.10;44.80
40816;DHT22;26535;48.788;9.214;2023-03-03T14:46:35;26.70;45.50
40816;DHT22;26535;48.788;9.214;2023-03-03T14:49:14;26.20;45.90
40816;DHT22;26535;48.788;9.214;2023-03-03T14:51:46;25.70;45.30
40816;DHT22;26535;48.788;9.214;2023-03-03T14:54:23;26.00;45.00
40816;DHT22;26535;48.788;9.214;2023-03-03T15:00:07;25.90;45.80
40816;DHT22;26535;48.788;9.214;2023-03-03T15:03:39;25.50;45.60
40816;DHT22;26535;48.788;9.214;2023-03-03T15:05:48;25.40;46.00
40816;DHT22;26535;48.788;9.214;2023-03-03T15:08:15;26.00;45.10
40816;DHT22;26535;48.788;9.214;2023-03-03T15:10:50;26.10;45.10
40816;DHT22;26535;48.788;9.214;2023-03-03T15:15:59;26.20;44.50
40816;DHT22;26535;48.788;9.214;2023-03-03T15:18:27;25.90;44.80
40816;DHT22;26535;48.788;9.214;2023-03-03T15:21:11;25.30;47.20
40816;DHT22;26535;48.788;9.214;2023-03-03T15:23:55;25.70;45.70
40816;DHT22;26535;48.788;9.214;2023-03-03T15:26:29;25.80;45.60
40816;DHT22;26535;48.788;9.214;2023-03-03T15:29:05;25.60;45.20
40816;DHT22;26535;48.788;9.214;2023-03-03T15:39:45;23.60;46.50
40816;DHT22;26535;48.788;9.214;2023-03-03T15:42:17;23.60;48.50
40816;DHT22;26535;48.788;9.214;2023-03-03T15:48:05;23.50;47.20
40816;DHT22;26535;48.788;9.214;2023-03-03T15:56:56;23.50;47.80
40816;DHT22;26535;48.788;9.214;2023-03-03T16:05:21;22.80;48.90
40816;DHT22;26535;48.788;9.214;2023-03-03T16:08:01;22.90;48.80
40816;DHT22;26535;48.788;9.214;2023-03-03T16:10:42;22.60;48.00
40816;DHT22;26535;48.788;9.214;2023-03-03T16:16:24;22.00;49.60
40816;DHT22;26535;48.788;9.214;2023-03-03T16:32:59;18.70;55.30
40816;DHT22;26535;48.788;9.214;2023-03-03T16:35:37;18.40;55.70
40816;DHT22;26535;48.788;9.214;2023-03-03T16:38:19;17.80;55.90
40816;DHT22;26535;48.788;9.214;2023-03-03T16:40:54;16.90;56.50
40816;DHT22;26535;48.788;9.214;2023-03-03T16:46:20;15.10;62.20
40816;DHT22;26535;48.788;9.214;2023-03-03T16:48:52;14.60;62.50
40816;DHT22;26535;48.788;9.214;2023-03-03T16:57:08;13.30;64.30
40816;DHT22;26535;48.788;9.214;2023-03-03T16:59:48;12.90;65.60
40816;DHT22;26535;48.788;9.214;2023-03-03T17:02:36;12.60;67.80
40816;DHT22;26535;48.788;9.214;2023-03-03T17:18:35;11.20;72.60
40816;DHT22;26535;48.788;9.214;2023-03-03T17:21:02;11.10;72.30
40816;DHT22;26535;48.788;9.214;2023-03-03T17:26:42;10.90;73.00
40816;DHT22;26535;48.788;9.214;2023-03-03T17:35:19;10.50;74.20
40816;DHT22;26535;48.788;9.214;2023-03-03T17:38:01;10.40;75.80
40816;DHT22;26535;48.788;9.214;2023-03-03T17:40:39;10.20;73.70
40816;DHT22;26535;48.788;9.214;2023-03-03T17:46:32;10.00;76.10
40816;DHT22;26535;48.788;9.214;2023-03-03T17:51:54;9.80;76.00
40816;DHT22;26535;48.788;9.214;2023-03-03T17:59:59;9.60;77.50
40816;DHT22;26535;48.788;9.214;2023-03-03T18:19:11;9.10;78.60
40816;DHT22;26535;48.788;9.214;2023-03-03T18:21:53;9.10;79.90
40816;DHT22;26535;48.788;9.214;2023-03-03T18:33:11;8.80;80.90
40816;DHT22;26535;48.788;9.214;2023-03-03T18:35:44;8.70;81.20
40816;DHT22;26535;48.788;9.214;2023-03-03T18:49:06;7.90;84.20
40816;DHT22;26535;48.788;9.214;2023-03-03T18:59:09;7.70;84.30
40816;DHT22;26535;48.788;9.214;2023-03-03T19:01:41;7.60;84.90
40816;DHT22;26535;48.788;9.214;2023-03-03T19:09:16;7.30;86.10
40816;DHT22;26535;48.788;9.214;2023-03-03T19:11:53;7.20;86.90
40816;DHT22;26535;48.788;9.214;2023-03-03T19:16:55;7.10;87.20
40816;DHT22;26535;48.788;9.214;2023-03-03T19:19:24;7.10;87.90
40816;DHT22;26535;48.788;9.214;2023-03-03T19:22:20;7.10;87.80
40816;DHT22;26535;48.788;9.214;2023-03-03T19:28:00;6.90;88.50
40816;DHT22;26535;48.788;9.214;2023-03-03T19:33:06;6.90;89.20
40816;DHT22;26535;48.788;9.214;2023-03-03T19:35:44;6.90;89.70
40816;DHT22;26535;48.788;9.214;2023-03-03T19:41:12;6.80;89.40
40816;DHT22;26535;48.788;9.214;2023-03-03T19:44:05;6.70;89.90
40816;DHT22;26535;48.788;9.214;2023-03-03T19:46:47;6.60;90.40
40816;DHT22;26535;48.788;9.214;2023-03-03T19:52:02;6.50;90.70
40816;DHT22;26535;48.788;9.214;2023-03-03T19:55:05;6.50;90.90
40816;DHT22;26535;48.788;9.214;2023-03-03T20:00:42;6.30;91.40
40816;DHT22;26535;48.788;9.214;2023-03-03T20:14:46;6.20;91.90
40816;DHT22;26535;48.788;9.214;2023-03-03T20:25:18;6.10;91.90
40816;DHT22;26535;48.788;9.214;2023-03-03T20:28:22;6.10;91.90
40816;DHT22;26535;48.788;9.214;2023-03-03T20:31:04;6.10;92.00
40816;DHT22;26535;48.788;9.214;2023-03-03T20:33:49;6.10;92.10
40816;DHT22;26535;48.788;9.214;2023-03-03T20:36:47;6.00;92.00
40816;DHT22;26535;48.788;9.214;2023-03-03T20:48:22;5.60;92.50
40816;DHT22;26535;48.788;9.214;2023-03-03T20:51:04;5.60;92.80
40816;DHT22;26535;48.788;9.214;2023-03-03T20:53:52;5.50;92.90
40816;DHT22;26535;48.788;9.214;2023-03-03T20:59:32;5.40;93.10
40816;DHT22;26535;48.788;9.214;2023-03-03T21:05:22;5.30;93.40
40816;DHT22;26535;48.788;9.214;2023-03-03T21:07:55;5.30;93.60
40816;DHT22;26535;48.788;9.214;2023-03-03T21:10:24;5.30;93.80
40816;DHT22;26535;48.788;9.214;2023-03-03T21:12:55;5.30;93.70
40816;DHT22;26535;48.788;9.214;2023-03-03T21:15:30;5.30;93.80
40816;DHT22;26535;48.788;9.214;2023-03-03T21:17:57;5.30;93.80
40816;DHT22;26535;48.788;9.214;2023-03-03T21:20:30;5.20;93.80
40816;DHT22;26535;48.788;9.214;2023-03-03T21:22:58;5.10;94.30
40816;DHT22;26535;48.788;9.214;2023-03-03T21:33:54;5.00;94.90
40816;DHT22;26535;48.788;9.214;2023-03-03T21:39:19;4.90;95.40
40816;DHT22;26535;48.788;9.214;2023-03-03T21:41:52;4.80;95.20
40816;DHT22;26535;48.788;9.214;2023-03-03T21:44:34;4.90;95.40
40816;DHT22;26535;48.788;9.214;2023-03-03T21:47:01;4.90;95.30
40816;DHT22;26535;48.788;9.214;2023-03-03T21:49:27;4.90;95.30
40816;DHT22;26535;48.788;9.214;2023-03-03T21:51:54;4.90;95.30
40816;DHT22;26535;48.788;9.214;2023-03-03T21:54:20;4.90;95.30
40816;DHT22;26535;48.788;9.214;2023-03-03T21:56:46;4.90;95.40
40816;DHT22;26535;48.788;9.214;2023-03-03T21:59:14;4.80;95.30
40816;DHT22;26535;48.788;9.214;2023-03-03T22:01:40;4.80;95.60
40816;DHT22;26535;48.788;9.214;2023-03-03T22:04:06;4.60;95.90
40816;DHT22;26535;48.788;9.214;2023-03-03T22:06:31;4.60;96.10
40816;DHT22;26535;48.788;9.214;2023-03-03T22:08:57;4.50;96.30
40816;DHT22;26535;48.788;9.214;2023-03-03T22:11:23;4.50;96.40
40816;DHT22;26535;48.788;9.214;2023-03-03T22:13:49;4.40;96.60
40816;DHT22;26535;48.788;9.214;2023-03-03T22:16:15;4.40;96.90
40816;DHT22;26535;48.788;9.214;2023-03-03T22:18:40;4.30;97.00
40816;DHT22;26535;48.788;9.214;2023-03-03T22:21:06;4.30;97.10
40816;DHT22;26535;48.788;9.214;2023-03-03T22:23:32;4.30;97.30
40816;DHT22;26535;48.788;9.214;2023-03-03T22:25:57;4.20;97.30
40816;DHT22;26535;48.788;9.214;2023-03-03T22:28:24;4.10;97.70
40816;DHT22;26535;48.788;9.214;2023-03-03T22:30:49;4.00;98.10
40816;DHT22;26535;48.788;9.214;2023-03-03T22:33:15;3.90;98.60
40816;DHT22;26535;48.788;9.214;2023-03-03T22:35:41;3.90;98.90
40816;DHT22;26535;48.788;9.214;2023-03-03T22:38:07;3.90;99.20
40816;DHT22;26535;48.788;9.214;2023-03-03T22:40:32;3.80;99.30
40816;DHT22;26535;48.788;9.214;2023-03-03T22:42:58;3.80;99.60
40816;DHT22;26535;48.788;9.214;2023-03-03T22:45:24;3.80;99.70
40816;DHT22;26535;48.788;9.214;2023-03-03T22:47:51;3.90;99.90
40816;DHT22;26535;48.788;9.214;2023-03-03T22:50:17;3.80;99.90
40816;DHT22;26535;48.788;9.214;2023-03-03T22:52:44;3.80;99.90
40816;DHT22;26535;48.788;9.214;2023-03-03T22:55:10;3.80;99.90
40816;DHT22;26535;48.788;9.214;2023-03-03T22:57:36;3.60;99.90
40816;DHT22;26535;48.788;9.214;2023-03-03T23:00:04;3.60;99.90
40816;DHT22;26535;48.788;9.214;2023-03-03T23:02:31;3.70;99.90
40816;DHT22;26535;48.788;9.214;2023-03-03T23:04:57;3.70;99.90
40816;DHT22;26535;48.788;9.214;2023-03-03T23:07:27;3.70;99.90
40816;DHT22;26535;48.788;9.214;2023-03-03T23:09:54;3.70;99.90
40816;DHT22;26535;48.788;9.214;2023-03-03T23:12:20;3.60;99.90
40816;DHT22;26535;48.788;9.214;2023-03-03T23:14:46;3.60;99.90
40816;DHT22;26535;48.788;9.214;2023-03-03T23:17:12;3.60;99.90
40816;DHT22;26535;48.788;9.214;2023-03-03T23:19:38;3.60;99.90
40816;DHT22;26535;48.788;9.214;2023-03-03T23:22:03;3.50;99.90
40816;DHT22;26535;48.788;9.214;2023-03-03T23:24:29;3.40;99.90
40816;DHT22;26535;48.788;9.214;2023-03-03T23:26:55;3.30;99.90
40816;DHT22;26535;48.788;9.214;2023-03-03T23:29:25;3.20;99.90
40816;DHT22;26535;48.788;9.214;2023-03-03T23:31:51;3.20;99.90
40816;DHT22;26535;48.788;9.214;2023-03-03T23:34:16;3.10;99.90
40816;DHT22;26535;48.788;9.214;2023-03-03T23:36:42;3.10;99.90
40816;DHT22;26535;48.788;9.214;2023-03-03T23:39:08;3.10;99.90
40816;DHT22;26535;48.788;9.214;2023-03-03T23:41:33;3.00;99.90
40816;DHT22;26535;48.788;9.214;2023-03-03T23:44:00;3.10;99.90
40816;DHT22;26535;48.788;9.214;2023-03-03T23:46:26;3.10;99.90
40816;DHT22;26535;48.788;9.214;2023-03-03T23:48:51;3.10;99.90
40816;DHT22;26535;48.788;9.214;2023-03-03T23:51:20;3.10;99.90
40816;DHT22;26535;48.788;9.214;2023-03-03T23:53:45;3.00;99.90
40816;DHT22;26535;48.788;9.214;2023-03-03T23:56:11;3.00;99.90
40816;DHT22;26535;48.788;9.214;2023-03-03T23:58:37;2.90;99.90
